Time,TemperatureF,DewpointF,PressureIn,WindDirection,WindDirectionDegrees,WindSpeedMPH,WindSpeedGustMPH,Humidity,HourlyPrecipIn,Conditions,Clouds,dailyrainin,SoftwareType,DateUTC
2013-09-04 07:59:00,48.1,45.3,30.07,East,90,6.0,6.0,90,0.00,,,0.00,Wunderground v.1.15,2013-09-04 13:59:00,
2013-09-04 08:04:00,48.2,45.4,30.07,East,86,6.0,6.0,90,0.00,,,0.00,Wunderground v.1.15,2013-09-04 14:04:00,
2013-09-04 08:09:00,48.5,45.7,30.07,East,98,5.0,8.0,90,0.00,,,0.00,Wunderground v.1.15,2013-09-04 14:09:00,
2013-09-04 08:14:00,48.9,46.1,30.07,East,80,5.0,8.0,90,0.00,,,0.00,Wunderground v.1.15,2013-09-04 14:14:00,
2013-09-04 08:24:00,49.9,46.8,30.07,East,101,4.0,8.0,89,0.00,,,0.00,Wunderground v.1.15,2013-09-04 14:24:00,
2013-09-04 08:34:00,51.2,47.8,30.06,East,88,4.0,8.0,88,0.00,,,0.00,Wunderground v.1.15,2013-09-04 14:34:00,
2013-09-04 08:39:00,52.1,48.0,30.06,ENE,76,4.0,4.0,86,0.00,,,0.00,Wunderground v.1.15,2013-09-04 14:39:00,
2013-09-04 08:44:00,53.0,48.6,30.06,NE,47,4.0,8.0,85,0.00,,,0.00,Wunderground v.1.15,2013-09-04 14:44:00,
2013-09-04 08:54:00,54.3,49.6,30.05,East,92,4.0,8.0,84,0.00,,,0.00,Wunderground v.1.15,2013-09-04 14:54:00,
2013-09-04 08:59:00,55.0,49.9,30.05,East,84,3.0,3.0,83,0.00,,,0.00,Wunderground v.1.15,2013-09-04 14:59:00,
2013-09-04 09:09:00,56.7,50.3,30.05,East,94,3.0,3.0,79,0.00,,,0.00,Wunderground v.1.15,2013-09-04 15:09:00,
2013-09-04 09:14:00,57.4,50.6,30.05,ENE,71,4.0,4.0,78,0.00,,,0.00,Wunderground v.1.15,2013-09-04 15:14:00,
2013-09-04 09:19:00,58.1,51.3,30.05,ENE,71,3.0,3.0,78,0.00,,,0.00,Wunderground v.1.15,2013-09-04 15:19:00,
2013-09-04 09:29:00,59.2,51.3,30.05,ENE,75,0.0,0.0,75,0.00,,,0.00,Wunderground v.1.15,2013-09-04 15:29:00,
2013-09-04 09:34:00,59.9,51.6,30.05,ENE,75,0.0,10.0,74,0.00,,,0.00,Wunderground v.1.15,2013-09-04 15:34:00,
2013-09-04 09:39:00,60.1,51.8,30.04,ENE,75,0.0,10.0,74,0.00,,,0.00,Wunderground v.1.15,2013-09-04 15:39:00,
2013-09-04 09:44:00,60.1,52.5,30.04,ENE,75,0.0,10.0,76,0.00,,,0.00,Wunderground v.1.15,2013-09-04 15:44:00,
2013-09-04 09:49:00,60.7,53.1,30.04,ENE,75,0.0,10.0,76,0.00,,,0.00,Wunderground v.1.15,2013-09-04 15:49:00,
2013-09-04 09:59:00,62.9,53.4,30.03,ENE,75,0.0,0.0,71,0.00,,,0.00,Wunderground v.1.15,2013-09-04 15:59:00,
2013-09-04 10:09:00,65.1,52.6,30.03,ENE,75,0.0,0.0,64,0.00,,,0.00,Wunderground v.1.15,2013-09-04 16:09:00,
2013-09-04 10:14:00,67.2,51.9,30.03,ENE,75,0.0,0.0,58,0.00,,,0.00,Wunderground v.1.15,2013-09-04 16:14:00,
2013-09-04 10:19:00,69.2,52.3,30.03,ENE,70,0.0,0.0,55,0.00,,,0.00,Wunderground v.1.15,2013-09-04 16:19:00,
2013-09-04 10:29:00,70.4,50.3,30.03,NNW,335,1.0,2.0,49,0.00,,,0.00,Wunderground v.1.15,2013-09-04 16:29:00,
2013-09-04 10:34:00,70.4,49.8,30.02,NNW,333,1.0,8.0,48,0.00,,,0.00,Wunderground v.1.15,2013-09-04 16:34:00,
2013-09-04 10:39:00,70.8,49.6,30.02,NNW,333,1.0,8.0,47,0.00,,,0.00,Wunderground v.1.15,2013-09-04 16:39:00,
2013-09-04 10:49:00,71.3,49.4,30.02,NNW,333,1.0,8.0,46,0.00,,,0.00,Wunderground v.1.15,2013-09-04 16:49:00,
2013-09-04 10:54:00,71.7,47.4,30.02,NNW,333,1.0,8.0,42,0.00,,,0.00,Wunderground v.1.15,2013-09-04 16:54:00,
2013-09-04 10:59:00,72.7,50.7,30.02,NNW,333,1.0,1.0,46,0.00,,,0.00,Wunderground v.1.15,2013-09-04 16:59:00,
2013-09-04 11:09:00,73.5,50.9,30.01,WNW,298,1.0,2.0,45,0.00,,,0.00,Wunderground v.1.15,2013-09-04 17:09:00,
2013-09-04 11:14:00,74.7,49.4,30.01,WNW,298,1.0,2.0,41,0.00,,,0.00,Wunderground v.1.15,2013-09-04 17:14:00,
2013-09-04 11:19:00,74.8,48.2,30.01,WNW,298,1.0,1.0,39,0.00,,,0.00,Wunderground v.1.15,2013-09-04 17:19:00,
2013-09-04 11:29:00,75.4,48.7,30.00,SSW,195,1.0,1.0,39,0.00,,,0.00,Wunderground v.1.15,2013-09-04 17:29:00,
2013-09-04 11:39:00,76.5,43.6,30.00,NE,44,1.0,4.0,31,0.00,,,0.00,Wunderground v.1.15,2013-09-04 17:39:00,
2013-09-04 11:44:00,75.6,45.2,30.00,ENE,78,3.0,4.0,34,0.00,,,0.00,Wunderground v.1.15,2013-09-04 17:44:00,
2013-09-04 11:49:00,76.2,44.2,30.00,SW,225,4.0,4.0,32,0.00,,,0.00,Wunderground v.1.15,2013-09-04 17:49:00,
2013-09-04 11:54:00,76.9,43.1,30.00,West,266,4.0,4.0,30,0.00,,,0.00,Wunderground v.1.15,2013-09-04 17:54:00,
2013-09-04 11:59:00,77.9,44.0,30.00,ESE,103,3.0,3.0,30,0.00,,,0.00,Wunderground v.1.15,2013-09-04 17:59:00,
2013-09-04 12:09:00,77.4,36.7,30.00,SSE,150,3.0,3.0,23,0.00,,,0.00,Wunderground v.1.15,2013-09-04 18:09:00,
2013-09-04 12:14:00,77.6,37.9,29.99,West,277,3.0,3.0,24,0.00,,,0.00,Wunderground v.1.15,2013-09-04 18:14:00,
2013-09-04 12:19:00,79.1,38.1,29.99,ESE,109,3.0,4.0,23,0.00,,,0.00,Wunderground v.1.15,2013-09-04 18:19:00,
2013-09-04 12:24:00,77.9,37.1,29.99,North,5,3.0,4.0,23,0.00,,,0.00,Wunderground v.1.15,2013-09-04 18:24:00,
2013-09-04 12:29:00,76.9,38.4,29.99,ESE,110,3.0,4.0,25,0.00,,,0.00,Wunderground v.1.15,2013-09-04 18:29:00,
2013-09-04 12:34:00,77.1,38.6,29.99,East,98,3.0,5.0,25,0.00,,,0.00,Wunderground v.1.15,2013-09-04 18:34:00,
2013-09-04 12:44:00,77.5,41.8,29.99,East,101,5.0,7.0,28,0.00,,,0.00,Wunderground v.1.15,2013-09-04 18:44:00,
2013-09-04 12:49:00,78.4,41.6,29.99,SE,144,3.0,3.0,27,0.00,,,0.00,Wunderground v.1.15,2013-09-04 18:49:00,
2013-09-04 12:59:00,79.3,45.2,29.99,ENE,64,2.0,3.0,30,0.00,,,0.00,Wunderground v.1.15,2013-09-04 18:59:00,
2013-09-04 13:09:00,78.8,42.0,29.99,SSW,212,3.0,3.0,27,0.00,,,0.00,Wunderground v.1.15,2013-09-04 19:09:00,
2013-09-04 13:19:00,78.5,40.7,29.99,NE,52,3.0,4.0,26,0.00,,,0.00,Wunderground v.1.15,2013-09-04 19:19:00,
2013-09-04 13:24:00,78.1,41.4,29.99,ENE,71,5.0,5.0,27,0.00,,,0.00,Wunderground v.1.15,2013-09-04 19:24:00,
2013-09-04 13:29:00,77.9,42.2,29.99,ENE,74,5.0,5.0,28,0.00,,,0.00,Wunderground v.1.15,2013-09-04 19:29:00,
2013-09-04 13:39:00,79.4,44.4,29.98,WNW,283,3.0,3.0,29,0.00,,,0.00,Wunderground v.1.15,2013-09-04 19:39:00,
2013-09-04 13:49:00,79.0,42.2,29.98,ENE,75,2.0,9.0,27,0.00,,,0.00,Wunderground v.1.15,2013-09-04 19:49:00,
2013-09-04 13:54:00,78.8,41.0,29.98,ENE,68,3.0,9.0,26,0.00,,,0.00,Wunderground v.1.15,2013-09-04 19:54:00,
2013-09-04 13:59:00,79.2,41.3,29.98,SSW,203,4.0,4.0,26,0.00,,,0.00,Wunderground v.1.15,2013-09-04 19:59:00,
2013-09-04 14:09:00,79.1,42.2,29.98,SSE,161,3.0,3.0,27,0.00,,,0.00,Wunderground v.1.15,2013-09-04 20:09:00,
2013-09-04 14:14:00,80.0,41.0,29.98,West,263,3.0,6.0,25,0.00,,,0.00,Wunderground v.1.15,2013-09-04 20:14:00,
2013-09-04 14:24:00,79.0,39.1,29.98,ESE,117,4.0,4.0,24,0.00,,,0.00,Wunderground v.1.15,2013-09-04 20:24:00,
2013-09-04 14:29:00,79.6,38.5,29.97,West,266,3.0,3.0,23,0.00,,,0.00,Wunderground v.1.15,2013-09-04 20:29:00,
2013-09-04 14:34:00,79.6,38.5,29.97,SSW,201,3.0,7.0,23,0.00,,,0.00,Wunderground v.1.15,2013-09-04 20:34:00,
2013-09-04 14:44:00,78.6,38.8,29.97,SSW,213,5.0,5.0,24,0.00,,,0.00,Wunderground v.1.15,2013-09-04 20:44:00,
2013-09-04 14:54:00,80.0,38.9,29.97,NE,45,3.0,13.0,23,0.00,,,0.00,Wunderground v.1.15,2013-09-04 20:54:00,
2013-09-04 14:59:00,79.3,38.3,29.96,WNW,286,3.0,3.0,23,0.00,,,0.00,Wunderground v.1.15,2013-09-04 20:59:00,
2013-09-04 15:09:00,80.1,40.0,29.95,NW,304,3.0,3.0,24,0.00,,,0.00,Wunderground v.1.15,2013-09-04 21:09:00,
2013-09-04 15:14:00,79.8,38.7,29.96,SSW,200,4.0,4.0,23,0.00,,,0.00,Wunderground v.1.15,2013-09-04 21:14:00,
2013-09-04 15:24:00,79.4,37.2,29.96,SSW,200,3.0,5.0,22,0.00,,,0.00,Wunderground v.1.15,2013-09-04 21:24:00,
2013-09-04 15:34:00,78.8,38.9,29.95,NE,55,4.0,17.0,24,0.00,,,0.00,Wunderground v.1.15,2013-09-04 21:34:00,
2013-09-04 15:39:00,79.7,40.8,29.95,SW,229,4.0,17.0,25,0.00,,,0.00,Wunderground v.1.15,2013-09-04 21:39:00,
2013-09-04 15:44:00,79.5,39.5,29.95,WSW,256,3.0,17.0,24,0.00,,,0.00,Wunderground v.1.15,2013-09-04 21:44:00,
2013-09-04 15:54:00,78.8,38.9,29.95,South,182,3.0,17.0,24,0.00,,,0.00,Wunderground v.1.15,2013-09-04 21:54:00,
2013-09-04 15:59:00,78.7,37.8,29.94,ESE,106,5.0,8.0,23,0.00,,,0.00,Wunderground v.1.15,2013-09-04 21:59:00,
2013-09-04 16:09:00,79.3,38.3,29.94,East,89,4.0,5.0,23,0.00,,,0.00,Wunderground v.1.15,2013-09-04 22:09:00,
2013-09-04 16:14:00,79.2,38.2,29.94,ENE,64,3.0,5.0,23,0.00,,,0.00,Wunderground v.1.15,2013-09-04 22:14:00,
2013-09-04 16:24:00,79.3,38.3,29.94,ENE,59,3.0,4.0,23,0.00,,,0.00,Wunderground v.1.15,2013-09-04 22:24:00,
2013-09-04 16:29:00,78.8,37.9,29.94,ENE,77,4.0,4.0,23,0.00,,,0.00,Wunderground v.1.15,2013-09-04 22:29:00,
2013-09-04 16:34:00,78.7,38.9,29.94,SW,232,4.0,12.0,24,0.00,,,0.00,Wunderground v.1.15,2013-09-04 22:34:00,
2013-09-04 16:44:00,78.8,38.9,29.93,South,183,2.0,12.0,24,0.00,,,0.00,Wunderground v.1.15,2013-09-04 22:44:00,
2013-09-04 16:49:00,78.1,40.4,29.94,SW,232,2.0,12.0,26,0.00,,,0.00,Wunderground v.1.15,2013-09-04 22:49:00,
2013-09-04 16:54:00,77.8,38.1,29.94,ENE,57,2.0,12.0,24,0.00,,,0.00,Wunderground v.1.15,2013-09-04 22:54:00,
2013-09-04 16:59:00,77.5,36.8,29.94,East,91,4.0,10.0,23,0.00,,,0.00,Wunderground v.1.15,2013-09-04 22:59:00,
2013-09-04 17:09:00,76.9,37.3,29.93,WNW,302,4.0,4.0,24,0.00,,,0.00,Wunderground v.1.15,2013-09-04 23:09:00,
2013-09-04 17:14:00,77.2,37.6,29.93,ENE,70,2.0,4.0,24,0.00,,,0.00,Wunderground v.1.15,2013-09-04 23:14:00,
2013-09-04 17:19:00,76.9,38.4,29.93,ESE,117,3.0,3.0,25,0.00,,,0.00,Wunderground v.1.15,2013-09-04 23:19:00,
2013-09-04 17:29:00,76.9,38.4,29.92,ENE,72,2.0,4.0,25,0.00,,,0.00,Wunderground v.1.15,2013-09-04 23:29:00,
2013-09-04 17:34:00,76.8,38.3,29.92,NE,48,2.0,12.0,25,0.00,,,0.00,Wunderground v.1.15,2013-09-04 23:34:00,
2013-09-04 17:39:00,76.3,38.9,29.92,West,275,2.0,2.0,26,0.00,,,0.00,Wunderground v.1.15,2013-09-04 23:39:00,
2013-09-04 17:44:00,76.3,40.8,29.92,ENE,69,1.0,12.0,28,0.00,,,0.00,Wunderground v.1.15,2013-09-04 23:44:00,
2013-09-04 17:54:00,75.3,38.0,29.92,North,9,2.0,12.0,26,0.00,,,0.00,Wunderground v.1.15,2013-09-04 23:54:00,
2013-09-04 17:59:00,75.4,39.1,29.92,South,191,1.0,2.0,27,0.00,,,0.00,Wunderground v.1.15,2013-09-04 23:59:00,
2013-09-04 18:09:00,74.9,38.7,29.92,East,80,2.0,8.0,27,0.00,,,0.00,Wunderground v.1.15,2013-09-05 00:09:00,
2013-09-04 18:14:00,74.5,38.3,29.92,ENE,75,2.0,8.0,27,0.00,,,0.00,Wunderground v.1.15,2013-09-05 00:14:00,
2013-09-04 18:19:00,74.1,37.0,29.92,ESE,110,2.0,2.0,26,0.00,,,0.00,Wunderground v.1.15,2013-09-05 00:19:00,
2013-09-04 18:24:00,73.2,39.9,29.92,ESE,108,1.0,2.0,30,0.00,,,0.00,Wunderground v.1.15,2013-09-05 00:24:00,
2013-09-04 18:29:00,72.1,38.9,29.92,SE,145,1.0,1.0,30,0.00,,,0.00,Wunderground v.1.15,2013-09-05 00:29:00,
2013-09-04 18:39:00,71.5,39.3,29.92,West,260,1.0,1.0,31,0.00,,,0.00,Wunderground v.1.15,2013-09-05 00:39:00,
2013-09-04 18:49:00,70.8,40.3,29.93,WSW,242,0.0,14.0,33,0.00,,,0.00,Wunderground v.1.15,2013-09-05 00:49:00,
2013-09-04 18:54:00,70.0,38.8,29.92,SW,225,0.0,14.0,32,0.00,,,0.00,Wunderground v.1.15,2013-09-05 00:54:00,
2013-09-04 18:59:00,69.3,40.5,29.93,SW,225,0.0,0.0,35,0.00,,,0.00,Wunderground v.1.15,2013-09-05 00:59:00,
2013-09-04 19:09:00,67.3,41.5,29.93,SW,225,0.0,0.0,39,0.00,,,0.00,Wunderground v.1.15,2013-09-05 01:09:00,
2013-09-04 19:19:00,65.0,43.7,29.93,SW,225,0.0,0.0,46,0.00,,,0.00,Wunderground v.1.15,2013-09-05 01:19:00,
2013-09-04 19:24:00,64.4,42.6,29.93,SW,225,0.0,0.0,45,0.00,,,0.00,Wunderground v.1.15,2013-09-05 01:24:00,
2013-09-04 19:34:00,64.2,41.8,29.93,SW,225,0.0,9.0,44,0.00,,,0.00,Wunderground v.1.15,2013-09-05 01:34:00,
2013-09-04 19:39:00,63.8,42.0,29.93,ESE,123,0.0,9.0,45,0.00,,,0.00,Wunderground v.1.15,2013-09-05 01:39:00,
2013-09-04 19:49:00,62.7,42.7,29.93,East,94,0.0,9.0,48,0.00,,,0.00,Wunderground v.1.15,2013-09-05 01:49:00,
2013-09-04 19:54:00,62.4,42.4,29.94,East,98,0.0,9.0,48,0.00,,,0.00,Wunderground v.1.15,2013-09-05 01:54:00,
2013-09-04 19:59:00,62.2,43.3,29.94,East,98,0.0,0.0,50,0.00,,,0.00,Wunderground v.1.15,2013-09-05 01:59:00,
2013-09-04 20:09:00,61.6,42.8,29.94,ESE,119,1.0,1.0,50,0.00,,,0.00,Wunderground v.1.15,2013-09-05 02:09:00,
2013-09-04 20:19:00,61.2,42.4,29.95,East,98,1.0,3.0,50,0.00,,,0.00,Wunderground v.1.15,2013-09-05 02:19:00,
2013-09-04 20:29:00,60.7,43.5,29.95,ENE,78,1.0,3.0,53,0.00,,,0.00,Wunderground v.1.15,2013-09-05 02:29:00,
2013-09-04 20:34:00,60.9,42.1,29.95,East,88,2.0,3.0,50,0.00,,,0.00,Wunderground v.1.15,2013-09-05 02:34:00,
2013-09-04 20:39:00,60.9,43.1,29.96,East,88,2.0,2.0,52,0.00,,,0.00,Wunderground v.1.15,2013-09-05 02:39:00,
2013-09-04 20:44:00,60.7,41.9,29.96,East,90,3.0,6.0,50,0.00,,,0.00,Wunderground v.1.15,2013-09-05 02:44:00,
2013-09-04 20:54:00,60.8,41.5,29.96,ENE,61,5.0,7.0,49,0.00,,,0.00,Wunderground v.1.15,2013-09-05 02:54:00,
2013-09-04 20:59:00,60.8,41.0,29.97,East,83,5.0,6.0,48,0.00,,,0.00,Wunderground v.1.15,2013-09-05 02:59:00,
2013-09-04 21:09:00,60.3,41.6,29.96,ENE,67,5.0,5.0,50,0.00,,,0.00,Wunderground v.1.15,2013-09-05 03:09:00,
2013-09-04 21:14:00,60.2,41.0,29.97,East,84,5.0,6.0,49,0.00,,,0.00,Wunderground v.1.15,2013-09-05 03:14:00,
2013-09-04 21:24:00,59.7,41.0,29.97,ESE,108,5.0,7.0,50,0.00,,,0.00,Wunderground v.1.15,2013-09-05 03:24:00,
2013-09-04 21:29:00,59.5,40.8,29.97,East,90,5.0,5.0,50,0.00,,,0.00,Wunderground v.1.15,2013-09-05 03:29:00,
2013-09-04 21:34:00,59.1,41.0,29.97,East,98,5.0,8.0,51,0.00,,,0.00,Wunderground v.1.15,2013-09-05 03:34:00,
2013-09-04 21:39:00,59.0,41.4,29.97,East,92,5.0,6.0,52,0.00,,,0.00,Wunderground v.1.15,2013-09-05 03:39:00,
2013-09-04 21:44:00,58.6,40.5,29.98,East,92,5.0,6.0,51,0.00,,,0.00,Wunderground v.1.15,2013-09-05 03:44:00,
2013-09-04 21:49:00,58.5,40.9,29.98,East,94,4.0,4.0,52,0.00,,,0.00,Wunderground v.1.15,2013-09-05 03:49:00,
2013-09-04 21:59:00,58.2,40.1,29.98,East,88,4.0,6.0,51,0.00,,,0.00,Wunderground v.1.15,2013-09-05 03:59:00,
2013-09-04 22:04:00,58.2,40.1,29.98,East,92,4.0,6.0,51,0.00,,,0.00,Wunderground v.1.15,2013-09-05 04:04:00,
2013-09-04 22:09:00,58.0,41.0,29.98,ENE,61,4.0,4.0,53,0.00,,,0.00,Wunderground v.1.15,2013-09-05 04:09:00,
2013-09-04 22:14:00,57.9,39.9,29.98,ESE,104,4.0,5.0,51,0.00,,,0.00,Wunderground v.1.15,2013-09-05 04:14:00,
2013-09-04 22:19:00,58.1,40.1,29.98,ENE,74,4.0,4.0,51,0.00,,,0.00,Wunderground v.1.15,2013-09-05 04:19:00,
2013-09-04 22:24:00,58.4,39.8,29.98,ENE,57,4.0,4.0,50,0.00,,,0.00,Wunderground v.1.15,2013-09-05 04:24:00,
2013-09-04 22:29:00,58.4,39.8,29.99,East,81,3.0,6.0,50,0.00,,,0.00,Wunderground v.1.15,2013-09-05 04:29:00,
2013-09-04 22:34:00,58.3,39.7,29.98,East,94,3.0,9.0,50,0.00,,,0.00,Wunderground v.1.15,2013-09-05 04:34:00,
2013-09-04 22:39:00,58.2,39.6,29.99,ENE,73,3.0,3.0,50,0.00,,,0.00,Wunderground v.1.15,2013-09-05 04:39:00,
2013-09-04 22:44:00,58.5,39.4,29.99,East,96,3.0,9.0,49,0.00,,,0.00,Wunderground v.1.15,2013-09-05 04:44:00,
2013-09-04 22:49:00,58.4,39.3,29.99,ENE,76,3.0,9.0,49,0.00,,,0.00,Wunderground v.1.15,2013-09-05 04:49:00,
2013-09-04 22:54:00,58.2,40.1,29.99,East,87,2.0,9.0,51,0.00,,,0.00,Wunderground v.1.15,2013-09-05 04:54:00,
2013-09-04 23:00:00,58.0,39.5,29.99,ENE,78,2.0,3.0,50,0.00,,,0.00,Wunderground v.1.15,2013-09-05 05:00:00,
2013-09-04 23:09:00,57.6,39.6,29.99,ENE,60,2.0,2.0,51,0.00,,,0.00,Wunderground v.1.15,2013-09-05 05:09:00,
2013-09-04 23:19:00,57.5,39.0,29.99,East,85,3.0,3.0,50,0.00,,,0.00,Wunderground v.1.15,2013-09-05 05:19:00,
2013-09-04 23:29:00,57.2,39.2,29.99,East,89,2.0,2.0,51,0.00,,,0.00,Wunderground v.1.15,2013-09-05 05:29:00,
2013-09-04 23:34:00,56.7,39.7,30.00,ENE,69,2.0,3.0,53,0.00,,,0.00,Wunderground v.1.15,2013-09-05 05:34:00,
2013-09-04 23:39:00,56.3,39.4,30.00,East,94,2.0,9.0,53,0.00,,,0.00,Wunderground v.1.15,2013-09-05 05:39:00,
2013-09-04 23:49:00,55.5,39.1,30.00,ESE,102,2.0,9.0,54,0.00,,,0.00,Wunderground v.1.15,2013-09-05 05:49:00,
2013-09-04 23:54:00,55.6,39.2,30.00,East,86,2.0,9.0,54,0.00,,,0.00,Wunderground v.1.15,2013-09-05 05:54:00,
2013-09-04 23:59:00,55.9,39.5,30.00,East,89,4.0,4.0,54,0.00,,,0.00,Wunderground v.1.15,2013-09-05 05:59:00,